Time;durP1;ratioP1;P1;durP2;ratioP2;P2;SDS_P1;SDS_P2;PMS_P1;PMS_P2;Temp;Humidity;BMP_temperature;BMP_pressure;BME280_temperature;BME280_humidity;BME280_pressure;Samples;Min_cycle;Max_cycle;Signal;HPM_P1;HPM_P2
2022/11/13 00:01:18;;;;;;;;;;;16.30;97.30;;;;;;5099089;28;19934;-11
2022/11/13 00:03:45;;;;;;;;;;;16.20;97.30;;;;;;5081301;28;19934;-10
2022/11/13 00:06:12;;;;;;;;;;;16.20;97.30;;;;;;5081897;28;20351;-9
2022/11/13 00:08:37;;;;;;;;;;;16.20;97.30;;;;;;5081189;28;19991;-9
2022/11/13 00:11:10;;;;;;;;;;;16.20;97.30;;;;;;5099222;28;20229;-11
2022/11/13 00:13:57;;;;;;;;;;;16.20;97.30;;;;;;5080911;28;19916;-9
2022/11/13 00:16:22;;;;;;;;;;;16.20;97.30;;;;;;5098974;28;20293;-10
2022/11/13 00:18:48;;;;;;;;;;;16.20;97.30;;;;;;5098455;28;19915;-10
2022/11/13 00:21:18;;;;;;;;;;;16.20;97.30;;;;;;5098580;28;19908;-10
2022/11/13 00:23:44;;;;;;;;;;;16.20;97.30;;;;;;5098340;28;19919;-10
2022/11/13 00:26:14;;;;;;;;;;;16.20;97.30;;;;;;5080718;28;19908;-11
2022/11/13 00:28:40;;;;;;;;;;;16.20;97.30;;;;;;5098352;28;19908;-10
2022/11/13 00:31:06;;;;;;;;;;;16.20;97.30;;;;;;5081225;28;19908;-9
2022/11/13 00:33:37;;;;;;;;;;;16.20;97.30;;;;;;5098326;28;19963;-11
2022/11/13 00:36:04;;;;;;;;;;;16.20;97.30;;;;;;5098239;28;19912;-9
2022/11/13 00:38:29;;;;;;;;;;;16.10;97.30;;;;;;5098273;28;19964;-8
2022/11/13 00:40:55;;;;;;;;;;;16.20;97.30;;;;;;5099102;28;20014;-11
2022/11/13 00:43:21;;;;;;;;;;;16.10;97.30;;;;;;5114831;28;19958;-9
2022/11/13 00:45:46;;;;;;;;;;;16.10;97.20;;;;;;5097578;28;20181;-10
2022/11/13 00:48:12;;;;;;;;;;;16.10;97.20;;;;;;5098119;28;19919;-10
2022/11/13 00:50:38;;;;;;;;;;;16.20;97.30;;;;;;5098017;28;19908;-10
2022/11/13 00:53:03;;;;;;;;;;;16.10;97.20;;;;;;5080988;28;20287;-11
2022/11/13 00:55:29;;;;;;;;;;;16.10;97.20;;;;;;5098846;28;19908;-11
2022/11/13 00:57:54;;;;;;;;;;;16.20;97.20;;;;;;5080694;28;19912;-11
2022/11/13 01:00:32;;;;;;;;;;;16.10;97.20;;;;;;5098683;28;19908;-10
2022/11/13 01:02:58;;;;;;;;;;;16.10;97.20;;;;;;5080543;28;20199;-9
2022/11/13 01:05:24;;;;;;;;;;;16.10;97.20;;;;;;5114439;28;20324;-10
2022/11/13 01:07:49;;;;;;;;;;;16.10;97.20;;;;;;5081014;28;19908;-9
2022/11/13 01:10:23;;;;;;;;;;;16.10;97.10;;;;;;5080364;28;20003;-10
2022/11/13 01:12:49;;;;;;;;;;;16.10;97.20;;;;;;5098310;28;19912;-10
2022/11/13 01:15:14;;;;;;;;;;;16.10;97.10;;;;;;5097597;28;19967;-11
2022/11/13 01:17:40;;;;;;;;;;;16.10;97.10;;;;;;5098117;28;19916;-10
2022/11/13 01:20:15;;;;;;;;;;;16.10;97.10;;;;;;5080057;28;19919;-11
2022/11/13 01:22:40;;;;;;;;;;;16.10;97.10;;;;;;5097963;28;19954;-10
2022/11/13 01:25:06;;;;;;;;;;;16.10;97.10;;;;;;5097942;28;20008;-8
2022/11/13 01:27:34;;;;;;;;;;;16.10;97.00;;;;;;5098238;28;19908;-9
2022/11/13 01:30:18;;;;;;;;;;;16.10;97.00;;;;;;5097800;28;20192;-10
2022/11/13 01:32:44;;;;;;;;;;;16.10;97.00;;;;;;5080117;28;19969;-11
2022/11/13 01:35:09;;;;;;;;;;;16.10;97.00;;;;;;5080310;28;19916;-11
2022/11/13 01:37:35;;;;;;;;;;;16.10;97.00;;;;;;5097411;28;19908;-10
2022/11/13 01:40:02;;;;;;;;;;;16.10;96.90;;;;;;5097554;28;20321;-9
2022/11/13 01:42:27;;;;;;;;;;;16.10;96.90;;;;;;5097839;28;19919;-10
2022/11/13 01:44:55;;;;;;;;;;;16.10;96.90;;;;;;5097822;28;19912;-11
2022/11/13 01:47:21;;;;;;;;;;;16.10;96.90;;;;;;5080312;28;20014;-11
2022/11/13 01:50:00;;;;;;;;;;;16.10;96.90;;;;;;5097669;28;20470;-10
2022/11/13 01:52:31;;;;;;;;;;;16.10;96.90;;;;;;5097789;28;19912;-10
2022/11/13 01:55:00;;;;;;;;;;;16.00;96.80;;;;;;5114712;28;19907;-11
2022/11/13 01:57:25;;;;;;;;;;;16.00;96.80;;;;;;5079284;28;20285;-10
2022/11/13 01:59:57;;;;;;;;;;;16.00;96.80;;;;;;5098007;28;19909;-10
2022/11/13 02:02:22;;;;;;;;;;;16.10;96.90;;;;;;5082457;28;19912;-10
2022/11/13 02:04:48;;;;;;;;;;;16.00;96.80;;;;;;5101522;28;19919;-9
2022/11/13 02:07:15;;;;;;;;;;;16.00;96.80;;;;;;5101648;28;19908;-10
2022/11/13 02:09:49;;;;;;;;;;;16.10;96.80;;;;;;5102023;28;19908;-10
2022/11/13 02:12:18;;;;;;;;;;;16.10;96.80;;;;;;5083560;28;19912;-10
2022/11/13 02:14:45;;;;;;;;;;;16.10;96.70;;;;;;5101892;28;19920;-9
2022/11/13 02:17:14;;;;;;;;;;;16.10;96.70;;;;;;5117808;28;19966;-10
2022/11/13 02:19:44;;;;;;;;;;;16.00;96.60;;;;;;5101977;28;19998;-8
2022/11/13 02:22:30;;;;;;;;;;;16.10;96.60;;;;;;5083511;28;20243;-8
2022/11/13 02:24:57;;;;;;;;;;;16.10;96.50;;;;;;5101665;28;19935;-12
2022/11/13 02:27:26;;;;;;;;;;;16.10;96.50;;;;;;5083059;28;19930;-12
2022/11/13 02:29:52;;;;;;;;;;;16.10;96.50;;;;;;5117540;28;19926;-10
2022/11/13 02:32:33;;;;;;;;;;;16.10;96.40;;;;;;5101450;28;20169;-8
2022/11/13 02:34:58;;;;;;;;;;;16.10;96.40;;;;;;5101451;28;20003;-10
2022/11/13 02:37:24;;;;;;;;;;;16.10;96.40;;;;;;5083536;28;19951;-11
2022/11/13 02:39:49;;;;;;;;;;;16.10;96.40;;;;;;5083569;28;19952;-10
2022/11/13 02:42:21;;;;;;;;;;;16.10;96.40;;;;;;5082872;28;19954;-10
2022/11/13 02:44:47;;;;;;;;;;;16.10;96.30;;;;;;5100552;28;19908;-12
2022/11/13 02:47:12;;;;;;;;;;;16.10;96.30;;;;;;5100751;28;19912;-10
2022/11/13 02:49:38;;;;;;;;;;;16.10;96.20;;;;;;5100960;28;19916;-10
2022/11/13 02:52:03;;;;;;;;;;;16.10;96.20;;;;;;5100213;28;20509;-9
2022/11/13 02:54:49;;;;;;;;;;;16.10;96.20;;;;;;5100964;28;19919;-10
2022/11/13 02:57:14;;;;;;;;;;;16.10;96.20;;;;;;5100281;28;19908;-10
2022/11/13 02:59:40;;;;;;;;;;;16.10;96.20;;;;;;5083110;28;19908;-9
2022/11/13 03:02:06;;;;;;;;;;;16.10;96.20;;;;;;5083042;28;19959;-12
2022/11/13 03:04:31;;;;;;;;;;;16.10;96.10;;;;;;5082455;28;20011;-11
2022/11/13 03:06:58;;;;;;;;;;;16.10;96.10;;;;;;5100131;28;19912;-11
2022/11/13 03:09:23;;;;;;;;;;;16.10;96.10;;;;;;5100910;28;19912;-10
2022/11/13 03:11:49;;;;;;;;;;;16.10;96.00;;;;;;5082345;28;19916;-11
2022/11/13 03:14:14;;;;;;;;;;;16.00;96.00;;;;;;5099967;28;19911;-11
2022/11/13 03:16:44;;;;;;;;;;;16.00;96.00;;;;;;5082266;28;19912;-11
2022/11/13 03:19:09;;;;;;;;;;;16.10;96.00;;;;;;5082083;28;19916;-10
2022/11/13 03:21:35;;;;;;;;;;;16.00;96.00;;;;;;5100395;28;19919;-9
2022/11/13 03:24:01;;;;;;;;;;;16.00;95.90;;;;;;5100121;28;19915;-11
2022/11/13 03:26:27;;;;;;;;;;;16.00;95.90;;;;;;5100556;28;20006;-10
2022/11/13 03:28:52;;;;;;;;;;;16.00;95.90;;;;;;5082654;28;19962;-10
2022/11/13 03:31:18;;;;;;;;;;;16.00;95.90;;;;;;5100134;28;19920;-10
2022/11/13 03:33:44;;;;;;;;;;;16.00;95.90;;;;;;5100431;28;19912;-11
2022/11/13 03:36:31;;;;;;;;;;;16.00;95.90;;;;;;5099481;28;20443;-10
2022/11/13 03:38:57;;;;;;;;;;;16.00;95.80;;;;;;5082497;28;19973;-10
2022/11/13 03:41:23;;;;;;;;;;;16.00;95.80;;;;;;5082619;28;19922;-11
2022/11/13 03:43:48;;;;;;;;;;;16.00;95.80;;;;;;5100282;28;19999;-10
2022/11/13 03:46:14;;;;;;;;;;;16.00;95.80;;;;;;5099766;28;19908;-8
2022/11/13 03:49:07;;;;;;;;;;;16.00;95.80;;;;;;5100029;28;19959;-9
2022/11/13 03:51:32;;;;;;;;;;;15.90;95.80;;;;;;5099520;28;20170;-10
2022/11/13 03:53:59;;;;;;;;;;;15.90;95.80;;;;;;5099750;28;20269;-10
2022/11/13 03:56:24;;;;;;;;;;;15.90;95.80;;;;;;5099488;28;19990;-9
2022/11/13 03:59:04;;;;;;;;;;;15.90;95.80;;;;;;5099822;28;20261;-11
2022/11/13 04:01:29;;;;;;;;;;;15.90;95.90;;;;;;5099468;28;19999;-10
2022/11/13 04:03:55;;;;;;;;;;;15.90;95.90;;;;;;5099464;28;19943;-12
2022/11/13 04:06:20;;;;;;;;;;;15.90;95.80;;;;;;5099425;28;19943;-13
2022/11/13 04:08:46;;;;;;;;;;;16.20;95.00;;;;;;5081489;28;20277;-9
2022/11/13 04:11:12;;;;;;;;;;;16.60;94.00;;;;;;5081643;28;19916;-11
2022/11/13 04:13:37;;;;;;;;;;;17.00;92.50;;;;;;5115403;28;19923;-9
2022/11/13 04:16:03;;;;;;;;;;;17.40;91.20;;;;;;5098952;28;19935;-9
2022/11/13 04:18:29;;;;;;;;;;;17.60;90.40;;;;;;5081327;28;20265;-9
2022/11/13 04:21:01;;;;;;;;;;;17.80;89.20;;;;;;5098787;28;19919;-11
2022/11/13 04:24:00;;;;;;;;;;;18.00;87.30;;;;;;5098638;28;19907;-10
2022/11/13 04:26:25;;;;;;;;;;;18.20;85.90;;;;;;5081426;28;19919;-12
2022/11/13 04:28:51;;;;;;;;;;;18.30;84.80;;;;;;5081166;28;19908;-11
2022/11/13 04:31:16;;;;;;;;;;;18.30;84.10;;;;;;5098621;28;20460;-9
2022/11/13 04:33:49;;;;;;;;;;;18.30;83.90;;;;;;5099286;28;20333;-10
2022/11/13 04:36:15;;;;;;;;;;;18.30;83.80;;;;;;5098980;28;20169;-12
2022/11/13 04:38:40;;;;;;;;;;;18.30;84.00;;;;;;5081543;28;20388;-10
2022/11/13 04:43:51;;;;;;;;;;;18.10;84.60;;;;;;5098818;28;19961;-11
2022/11/13 04:46:24;;;;;;;;;;;18.00;85.20;;;;;;5082289;28;20227;-9
2022/11/13 04:48:50;;;;;;;;;;;17.90;85.90;;;;;;5098382;28;20309;-11
2022/11/13 04:51:15;;;;;;;;;;;17.80;86.60;;;;;;5098577;28;19908;-11
2022/11/13 04:54:00;;;;;;;;;;;17.70;87.30;;;;;;5081217;28;19950;-10
2022/11/13 04:56:25;;;;;;;;;;;17.60;87.80;;;;;;5080834;28;19919;-10
2022/11/13 04:58:51;;;;;;;;;;;17.60;88.50;;;;;;5098305;28;19908;-11
2022/11/13 05:01:17;;;;;;;;;;;17.50;89.20;;;;;;5098315;28;19961;-10
2022/11/13 05:06:45;;;;;;;;;;;17.30;90.20;;;;;;5098065;28;19961;-11
2022/11/13 05:09:11;;;;;;;;;;;17.20;90.50;;;;;;5098160;28;19908;-11
2022/11/13 05:11:37;;;;;;;;;;;17.10;90.70;;;;;;5098429;28;19908;-14
2022/11/13 05:14:03;;;;;;;;;;;17.00;91.00;;;;;;5097945;28;19923;-11
2022/11/13 05:16:29;;;;;;;;;;;16.90;91.20;;;;;;5080529;28;20012;-11
2022/11/13 05:18:56;;;;;;;;;;;16.90;91.40;;;;;;5080485;28;20041;-11
2022/11/13 05:21:22;;;;;;;;;;;16.80;91.60;;;;;;5115296;28;19973;-10
2022/11/13 05:26:52;;;;;;;;;;;16.70;92.10;;;;;;5098262;28;20372;-10
2022/11/13 05:29:17;;;;;;;;;;;16.60;92.30;;;;;;5080908;28;20406;-11
2022/11/13 05:31:43;;;;;;;;;;;16.50;92.50;;;;;;5079746;28;19923;-11
2022/11/13 05:34:09;;;;;;;;;;;16.50;92.60;;;;;;5080413;28;19912;-9
2022/11/13 05:36:41;;;;;;;;;;;16.40;92.80;;;;;;5082392;28;19919;-10
2022/11/13 05:39:06;;;;;;;;;;;16.40;92.90;;;;;;5084505;28;19965;-12
2022/11/13 05:41:32;;;;;;;;;;;16.30;93.00;;;;;;5084597;28;19919;-11
2022/11/13 05:43:58;;;;;;;;;;;16.30;93.10;;;;;;5084532;28;19908;-10
2022/11/13 05:46:25;;;;;;;;;;;16.20;93.20;;;;;;5118152;28;19912;-11
2022/11/13 05:48:52;;;;;;;;;;;16.20;93.30;;;;;;5083670;28;19908;-9
2022/11/13 05:51:23;;;;;;;;;;;16.20;93.50;;;;;;5083249;28;19908;-11
2022/11/13 05:53:50;;;;;;;;;;;16.20;93.70;;;;;;5100290;28;19912;-12
2022/11/13 05:56:20;;;;;;;;;;;16.20;93.60;;;;;;5101529;28;19908;-11
2022/11/13 05:58:46;;;;;;;;;;;16.30;93.40;;;;;;5084204;28;19965;-11
2022/11/13 06:01:14;;;;;;;;;;;16.40;93.10;;;;;;5101529;28;19927;-12
2022/11/13 06:03:40;;;;;;;;;;;16.60;92.70;;;;;;5084261;28;20269;-11
2022/11/13 06:06:07;;;;;;;;;;;16.90;91.80;;;;;;5083409;28;19908;-11
2022/11/13 06:08:33;;;;;;;;;;;17.10;91.10;;;;;;5117628;28;19909;-9
2022/11/13 06:10:59;;;;;;;;;;;17.20;90.50;;;;;;5083691;28;19908;-12
2022/11/13 06:13:25;;;;;;;;;;;17.30;90.00;;;;;;5083509;28;20359;-10
2022/11/13 06:15:50;;;;;;;;;;;17.40;89.20;;;;;;5083509;28;19908;-9
2022/11/13 06:18:20;;;;;;;;;;;17.50;88.50;;;;;;5101405;28;20235;-10
2022/11/13 06:23:48;;;;;;;;;;;17.60;87.50;;;;;;5100956;28;19961;-9
2022/11/13 06:26:16;;;;;;;;;;;17.60;86.90;;;;;;5101101;28;20189;-10
2022/11/13 06:28:42;;;;;;;;;;;17.60;86.80;;;;;;5101552;28;20011;-10
2022/11/13 06:31:20;;;;;;;;;;;17.60;86.70;;;;;;5100861;28;19965;-11
2022/11/13 06:33:45;;;;;;;;;;;17.50;86.80;;;;;;5100804;28;19916;-10
2022/11/13 06:36:15;;;;;;;;;;;17.50;87.10;;;;;;5083607;28;19962;-10
2022/11/13 06:38:41;;;;;;;;;;;17.40;87.50;;;;;;5117120;28;19935;-10
2022/11/13 06:41:08;;;;;;;;;;;17.40;87.90;;;;;;5101088;28;20495;-9
2022/11/13 06:43:34;;;;;;;;;;;17.20;88.40;;;;;;5116832;28;19908;-9
2022/11/13 06:46:03;;;;;;;;;;;17.10;88.90;;;;;;5083435;28;19919;-10
2022/11/13 06:48:28;;;;;;;;;;;17.10;89.70;;;;;;5099881;28;19927;-10
2022/11/13 06:50:54;;;;;;;;;;;17.00;90.20;;;;;;5083126;28;19916;-11
2022/11/13 06:53:19;;;;;;;;;;;16.90;90.50;;;;;;5100046;28;20254;-11
2022/11/13 06:55:49;;;;;;;;;;;16.80;90.60;;;;;;5100781;28;19908;-9
2022/11/13 06:58:15;;;;;;;;;;;16.70;90.80;;;;;;5082897;28;19912;-11
2022/11/13 07:01:16;;;;;;;;;;;16.70;91.10;;;;;;5083620;28;19908;-11
2022/11/13 07:03:41;;;;;;;;;;;16.60;91.30;;;;;;5100637;28;19961;-8
2022/11/13 07:06:08;;;;;;;;;;;16.50;91.50;;;;;;5083398;28;19908;-10
2022/11/13 07:08:33;;;;;;;;;;;16.40;91.60;;;;;;5100186;27;19999;-10
2022/11/13 07:10:59;;;;;;;;;;;16.40;91.80;;;;;;5100391;28;19931;-9
2022/11/13 07:13:26;;;;;;;;;;;16.40;92.00;;;;;;5100291;28;19912;-9
2022/11/13 07:15:52;;;;;;;;;;;16.30;92.10;;;;;;5100030;28;19918;-10
2022/11/13 07:18:18;;;;;;;;;;;16.30;92.20;;;;;;5100094;28;19920;-10
2022/11/13 07:20:43;;;;;;;;;;;16.30;92.30;;;;;;5099827;28;20004;-10
2022/11/13 07:23:10;;;;;;;;;;;16.20;92.30;;;;;;5099902;28;19962;-9
2022/11/13 07:25:36;;;;;;;;;;;16.30;92.40;;;;;;5098284;28;19915;-11
2022/11/13 07:28:01;;;;;;;;;;;16.30;92.20;;;;;;5100149;28;19908;-11
2022/11/13 07:30:27;;;;;;;;;;;16.50;91.90;;;;;;5082607;28;19908;-9
2022/11/13 07:32:53;;;;;;;;;;;16.60;91.40;;;;;;5099546;28;19924;-10
2022/11/13 07:35:19;;;;;;;;;;;16.80;90.80;;;;;;5082283;28;19995;-10
2022/11/13 07:37:44;;;;;;;;;;;17.00;90.10;;;;;;5082151;28;20280;-11
2022/11/13 07:40:12;;;;;;;;;;;17.20;88.70;;;;;;5096799;28;19915;-10
2022/11/13 07:42:38;;;;;;;;;;;17.40;87.50;;;;;;5096934;28;19908;-11
2022/11/13 07:45:04;;;;;;;;;;;17.50;86.50;;;;;;5099435;28;19926;-9
2022/11/13 07:47:30;;;;;;;;;;;17.60;85.40;;;;;;5099530;28;19977;-11
2022/11/13 07:49:55;;;;;;;;;;;17.70;84.30;;;;;;5099259;28;19908;-11
2022/11/13 07:52:21;;;;;;;;;;;17.80;83.50;;;;;;5081779;28;19908;-9
2022/11/13 07:54:56;;;;;;;;;;;17.80;82.80;;;;;;5081556;28;19975;-10
2022/11/13 07:57:22;;;;;;;;;;;17.90;82.50;;;;;;5081573;28;20024;-10
2022/11/13 07:59:48;;;;;;;;;;;17.90;82.30;;;;;;5080624;28;19945;-8
2022/11/13 08:02:14;;;;;;;;;;;17.90;82.00;;;;;;5081897;28;20253;-9
2022/11/13 08:04:42;;;;;;;;;;;18.00;81.40;;;;;;5099395;28;19908;-9
2022/11/13 08:07:10;;;;;;;;;;;18.70;78.70;;;;;;5097957;28;19908;-13
2022/11/13 08:09:35;;;;;;;;;;;19.20;74.80;;;;;;5113107;28;19915;-10
2022/11/13 08:12:01;;;;;;;;;;;19.80;71.70;;;;;;5080780;28;19908;-10
2022/11/13 08:14:26;;;;;;;;;;;20.40;68.30;;;;;;5093459;28;19923;-11
2022/11/13 08:17:00;;;;;;;;;;;20.90;64.80;;;;;;5097710;28;20178;-9
2022/11/13 08:19:26;;;;;;;;;;;21.50;61.80;;;;;;5093272;28;19916;-11
2022/11/13 08:21:51;;;;;;;;;;;21.90;59.60;;;;;;5094816;28;19972;-11
2022/11/13 08:24:18;;;;;;;;;;;22.10;58.60;;;;;;5093510;28;19908;-11
2022/11/13 08:26:44;;;;;;;;;;;21.90;58.20;;;;;;5098126;28;19908;-11
2022/11/13 08:29:36;;;;;;;;;;;21.80;58.20;;;;;;5098364;28;19976;-11
2022/11/13 08:32:02;;;;;;;;;;;21.40;58.40;;;;;;5079930;28;20346;-10
2022/11/13 08:34:36;;;;;;;;;;;21.30;58.90;;;;;;5096511;28;19912;-12
2022/11/13 08:37:01;;;;;;;;;;;21.30;58.90;;;;;;5093244;28;19908;-10
2022/11/13 08:39:53;;;;;;;;;;;21.70;58.50;;;;;;5097194;28;19919;-10
2022/11/13 08:42:19;;;;;;;;;;;22.40;57.10;;;;;;5080923;28;19908;-11
2022/11/13 08:44:44;;;;;;;;;;;22.60;56.30;;;;;;5080691;28;19922;-12
2022/11/13 08:47:10;;;;;;;;;;;23.00;55.60;;;;;;5098233;28;19995;-11
2022/11/13 08:49:52;;;;;;;;;;;23.50;54.70;;;;;;5099108;28;20292;-10
2022/11/13 08:52:17;;;;;;;;;;;24.00;53.70;;;;;;5080372;28;19914;-11
2022/11/13 08:54:43;;;;;;;;;;;24.40;52.80;;;;;;5098492;28;19908;-11
2022/11/13 08:57:08;;;;;;;;;;;24.60;52.10;;;;;;5080056;28;19908;-11
2022/11/13 08:59:35;;;;;;;;;;;24.80;51.50;;;;;;5080517;28;19920;-12
2022/11/13 09:02:01;;;;;;;;;;;25.00;51.10;;;;;;5080028;28;19969;-10
2022/11/13 09:04:27;;;;;;;;;;;25.10;50.80;;;;;;5098319;28;19966;-11
2022/11/13 09:06:52;;;;;;;;;;;25.20;50.50;;;;;;5080204;28;20361;-12
2022/11/13 09:09:21;;;;;;;;;;;25.30;50.30;;;;;;5098170;28;19935;-10
2022/11/13 09:11:47;;;;;;;;;;;25.30;50.10;;;;;;5100895;28;19908;-12
2022/11/13 09:14:12;;;;;;;;;;;25.40;50.00;;;;;;5084809;28;19923;-12
2022/11/13 09:16:38;;;;;;;;;;;25.40;49.90;;;;;;5102097;28;19914;-12
2022/11/13 09:19:12;;;;;;;;;;;25.10;49.90;;;;;;5084851;28;19927;-11
2022/11/13 09:21:38;;;;;;;;;;;24.50;50.10;;;;;;5118022;28;19923;-11
2022/11/13 09:24:03;;;;;;;;;;;23.90;50.60;;;;;;5084469;28;19908;-12
2022/11/13 09:26:29;;;;;;;;;;;23.40;51.20;;;;;;5118208;28;19919;-10
2022/11/13 09:28:55;;;;;;;;;;;23.00;51.80;;;;;;5101498;28;19955;-12
2022/11/13 09:31:20;;;;;;;;;;;22.60;52.50;;;;;;5082876;28;19913;-10
2022/11/13 09:33:46;;;;;;;;;;;22.30;53.10;;;;;;5101402;28;19913;-12
2022/11/13 09:36:14;;;;;;;;;;;22.10;53.60;;;;;;5102170;28;20233;-12
2022/11/13 09:38:40;;;;;;;;;;;21.90;54.20;;;;;;5084253;28;19926;-11
2022/11/13 09:41:13;;;;;;;;;;;21.60;54.60;;;;;;5101814;28;20319;-12
2022/11/13 09:43:51;;;;;;;;;;;21.40;55.20;;;;;;5083513;28;20303;-12
2022/11/13 09:46:45;;;;;;;;;;;21.20;55.70;;;;;;5118037;28;19919;-13
2022/11/13 09:49:24;;;;;;;;;;;21.00;56.30;;;;;;5101351;28;20047;-12
2022/11/13 09:51:54;;;;;;;;;;;20.80;56.90;;;;;;5116879;28;19908;-12
2022/11/13 09:54:24;;;;;;;;;;;20.70;57.50;;;;;;5083400;28;19912;-13
2022/11/13 09:57:16;;;;;;;;;;;20.50;58.10;;;;;;5083533;28;19952;-12
2022/11/13 09:59:58;;;;;;;;;;;20.40;58.90;;;;;;5060216;28;19969;-10
2022/11/13 10:02:47;;;;;;;;;;;20.30;59.40;;;;;;5083796;28;19962;-10
2022/11/13 10:05:18;;;;;;;;;;;20.30;59.90;;;;;;5101261;28;19909;-11
2022/11/13 10:07:52;;;;;;;;;;;20.20;60.20;;;;;;5101332;28;19914;-12
2022/11/13 10:10:31;;;;;;;;;;;20.30;60.50;;;;;;5101095;28;19908;-12
2022/11/13 10:12:57;;;;;;;;;;;20.30;60.50;;;;;;5083537;28;19912;-11
2022/11/13 10:15:24;;;;;;;;;;;20.30;60.50;;;;;;5083464;28;19935;-12
2022/11/13 10:17:59;;;;;;;;;;;20.20;60.50;;;;;;5082695;28;20203;-12
2022/11/13 10:20:35;;;;;;;;;;;20.30;60.70;;;;;;5100646;28;19920;-12
2022/11/13 10:23:21;;;;;;;;;;;20.30;60.70;;;;;;5099524;28;19908;-11
2022/11/13 10:25:47;;;;;;;;;;;20.30;60.70;;;;;;5082509;28;19919;-12
2022/11/13 10:28:26;;;;;;;;;;;20.30;60.80;;;;;;5100426;28;19908;-11
2022/11/13 10:30:52;;;;;;;;;;;20.30;60.90;;;;;;5100519;28;19919;-12
2022/11/13 10:33:19;;;;;;;;;;;20.30;61.10;;;;;;5082523;28;19913;-11
2022/11/13 10:36:21;;;;;;;;;;;20.30;61.40;;;;;;5100584;28;19977;-11
2022/11/13 10:38:57;;;;;;;;;;;20.30;61.90;;;;;;5031692;28;20261;-11
2022/11/13 10:41:23;;;;;;;;;;;20.20;62.40;;;;;;5116567;28;19908;-12
2022/11/13 10:43:53;;;;;;;;;;;20.20;63.20;;;;;;5082228;28;20254;-13
2022/11/13 10:46:20;;;;;;;;;;;20.20;63.80;;;;;;5099759;28;19908;-12
2022/11/13 10:48:46;;;;;;;;;;;20.10;64.20;;;;;;5099566;28;19908;-12
2022/11/13 10:51:47;;;;;;;;;;;20.10;64.60;;;;;;5082540;28;19966;-11
2022/11/13 10:54:23;;;;;;;;;;;20.00;65.00;;;;;;5099659;28;19923;-12
2022/11/13 10:56:59;;;;;;;;;;;20.00;65.30;;;;;;5082662;28;19908;-13
2022/11/13 10:59:45;;;;;;;;;;;19.90;65.70;;;;;;5082715;28;19912;-12
2022/11/13 11:02:10;;;;;;;;;;;19.90;66.10;;;;;;5082597;28;19908;-10
2022/11/13 11:04:36;;;;;;;;;;;19.80;66.10;;;;;;5099817;28;19918;-11
2022/11/13 11:07:15;;;;;;;;;;;19.70;66.30;;;;;;5082404;28;19935;-11
2022/11/13 11:09:50;;;;;;;;;;;19.70;66.60;;;;;;5099774;28;20407;-10
2022/11/13 11:12:21;;;;;;;;;;;19.70;66.80;;;;;;5099848;28;19912;-11
2022/11/13 11:15:00;;;;;;;;;;;19.60;67.30;;;;;;5099537;28;19919;-11
2022/11/13 11:17:32;;;;;;;;;;;19.60;69.10;;;;;;5081973;28;19908;-12
2022/11/13 11:20:00;;;;;;;;;;;19.60;75.30;;;;;;5082169;28;19951;-12
2022/11/13 11:22:28;;;;;;;;;;;19.70;71.70;;;;;;5099802;28;19916;-11
2022/11/13 11:24:56;;;;;;;;;;;19.60;72.00;;;;;;5100220;28;19908;-11
2022/11/13 11:27:27;;;;;;;;;;;19.60;71.90;;;;;;5099860;28;19958;-12
2022/11/13 11:30:04;;;;;;;;;;;19.60;71.40;;;;;;5116181;28;19912;-12
2022/11/13 11:32:30;;;;;;;;;;;19.50;71.00;;;;;;5081533;28;19908;-11
2022/11/13 11:34:59;;;;;;;;;;;19.50;70.50;;;;;;5081321;28;20396;-12
2022/11/13 11:37:29;;;;;;;;;;;19.40;70.30;;;;;;5115076;28;20017;-12
2022/11/13 11:40:10;;;;;;;;;;;19.40;70.40;;;;;;5081425;28;20010;-13
2022/11/13 11:42:45;;;;;;;;;;;19.40;74.80;;;;;;5081662;28;19908;-12
2022/11/13 11:45:24;;;;;;;;;;;19.40;73.00;;;;;;5099302;28;19915;-11
2022/11/13 11:47:52;;;;;;;;;;;19.40;73.50;;;;;;5081189;28;19953;-12
2022/11/13 11:50:40;;;;;;;;;;;19.40;72.10;;;;;;5099587;28;19915;-13
2022/11/13 11:53:15;;;;;;;;;;;19.40;71.40;;;;;;5080991;28;19912;-12
2022/11/13 11:56:18;;;;;;;;;;;19.30;71.10;;;;;;5098512;28;19908;-11
2022/11/13 11:58:59;;;;;;;;;;;19.30;71.20;;;;;;5080208;28;19915;-13
2022/11/13 12:01:28;;;;;;;;;;;19.20;71.40;;;;;;5098367;28;20069;-12
2022/11/13 12:03:54;;;;;;;;;;;19.20;71.80;;;;;;5098220;28;20193;-11
2022/11/13 12:06:22;;;;;;;;;;;19.10;72.20;;;;;;5098891;28;19931;-11
2022/11/13 12:09:01;;;;;;;;;;;19.10;72.40;;;;;;5099098;28;19935;-11
2022/11/13 12:11:29;;;;;;;;;;;19.10;72.50;;;;;;5098721;28;19908;-12
2022/11/13 12:13:59;;;;;;;;;;;19.00;72.50;;;;;;5081564;28;19912;-12
2022/11/13 12:16:37;;;;;;;;;;;19.00;72.40;;;;;;5110295;28;19932;-12
2022/11/13 12:19:29;;;;;;;;;;;19.00;72.10;;;;;;5077532;28;19981;-11
2022/11/13 12:22:06;;;;;;;;;;;19.00;71.80;;;;;;5075477;28;19935;-11
2022/11/13 12:24:39;;;;;;;;;;;19.00;72.40;;;;;;5078015;28;20324;-11
2022/11/13 12:27:08;;;;;;;;;;;19.00;71.40;;;;;;5078576;28;20460;-11
2022/11/13 12:30:06;;;;;;;;;;;19.00;71.40;;;;;;5078079;28;19995;-13
2022/11/13 12:32:38;;;;;;;;;;;18.90;71.50;;;;;;5027736;28;19909;-14
2022/11/13 12:35:07;;;;;;;;;;;18.90;71.40;;;;;;5077781;28;19908;-11
2022/11/13 12:37:37;;;;;;;;;;;18.90;71.30;;;;;;5077405;28;19909;-9
2022/11/13 12:40:25;;;;;;;;;;;18.90;71.40;;;;;;5059967;28;20382;-13
2022/11/13 12:43:06;;;;;;;;;;;18.90;71.40;;;;;;5075902;28;19931;-11
2022/11/13 12:45:31;;;;;;;;;;;18.90;71.40;;;;;;5076073;28;19909;-11
2022/11/13 12:48:19;;;;;;;;;;;18.90;72.40;;;;;;5076621;28;20162;-11
2022/11/13 12:51:02;;;;;;;;;;;18.90;72.30;;;;;;5059263;28;20244;-11
2022/11/13 12:53:30;;;;;;;;;;;18.90;72.10;;;;;;5076585;28;19967;-12
2022/11/13 12:55:59;;;;;;;;;;;18.90;72.30;;;;;;5058254;28;20392;-12
2022/11/13 12:58:31;;;;;;;;;;;18.80;72.40;;;;;;5058991;28;19916;-11
2022/11/13 13:01:13;;;;;;;;;;;18.80;72.50;;;;;;5059527;28;19959;-12
2022/11/13 13:03:51;;;;;;;;;;;18.80;72.80;;;;;;5058768;28;19920;-9
2022/11/13 13:06:17;;;;;;;;;;;18.80;73.20;;;;;;5077032;28;19920;-12
2022/11/13 13:08:50;;;;;;;;;;;18.70;73.40;;;;;;5093035;28;19913;-11
2022/11/13 13:11:22;;;;;;;;;;;18.70;73.60;;;;;;5059084;28;20461;-10
2022/11/13 13:14:14;;;;;;;;;;;18.70;73.70;;;;;;5076853;28;19912;-11
2022/11/13 13:16:40;;;;;;;;;;;18.70;73.90;;;;;;5091820;28;19920;-12
2022/11/13 13:19:27;;;;;;;;;;;18.60;74.20;;;;;;5059377;28;19920;-11
2022/11/13 13:21:53;;;;;;;;;;;18.60;74.60;;;;;;5076555;28;19973;-12
2022/11/13 13:24:34;;;;;;;;;;;18.60;75.30;;;;;;5059874;28;19967;-10
2022/11/13 13:27:00;;;;;;;;;;;18.50;76.00;;;;;;5076857;28;19951;-12
2022/11/13 13:29:27;;;;;;;;;;;18.50;76.80;;;;;;5059704;28;19956;-12
2022/11/13 13:31:55;;;;;;;;;;;18.50;77.20;;;;;;5076920;28;19970;-11
2022/11/13 13:37:35;;;;;;;;;;;18.40;77.90;;;;;;5076857;28;19976;-12
2022/11/13 13:40:01;;;;;;;;;;;18.40;78.20;;;;;;5093049;28;19948;-11
2022/11/13 13:42:30;;;;;;;;;;;18.40;78.80;;;;;;5092537;28;20426;-11
2022/11/13 13:44:59;;;;;;;;;;;18.40;78.90;;;;;;5092380;28;19934;-12
2022/11/13 13:47:27;;;;;;;;;;;18.40;79.60;;;;;;5076238;28;19944;-10
2022/11/13 13:49:53;;;;;;;;;;;18.30;80.10;;;;;;5076059;28;19908;-11
2022/11/13 13:52:22;;;;;;;;;;;18.30;80.40;;;;;;5058444;28;19915;-11
2022/11/13 13:54:47;;;;;;;;;;;18.30;80.70;;;;;;5076415;28;20386;-11
2022/11/13 13:57:15;;;;;;;;;;;18.30;80.90;;;;;;5078731;28;20424;-11
2022/11/13 13:59:43;;;;;;;;;;;18.30;81.10;;;;;;5063897;28;19919;-10
2022/11/13 14:02:19;;;;;;;;;;;18.30;81.40;;;;;;5080701;28;20411;-10
2022/11/13 14:04:46;;;;;;;;;;;18.30;81.70;;;;;;5080632;28;20003;-10
2022/11/13 14:07:24;;;;;;;;;;;18.30;81.80;;;;;;5080100;28;19909;-11
2022/11/13 14:10:05;;;;;;;;;;;18.20;81.90;;;;;;5080966;28;19915;-12
2022/11/13 14:12:31;;;;;;;;;;;18.30;81.90;;;;;;5080105;28;19924;-11
2022/11/13 14:14:56;;;;;;;;;;;18.20;82.10;;;;;;5080117;28;19916;-11
2022/11/13 14:17:24;;;;;;;;;;;18.20;82.50;;;;;;5097073;28;19952;-11
2022/11/13 14:19:53;;;;;;;;;;;18.20;82.10;;;;;;5063247;28;19917;-10
2022/11/13 14:22:21;;;;;;;;;;;18.20;82.20;;;;;;5080932;28;19944;-10
2022/11/13 14:24:52;;;;;;;;;;;18.10;82.00;;;;;;5079957;28;19995;-11
2022/11/13 14:27:19;;;;;;;;;;;18.10;82.00;;;;;;5062983;28;20266;-11
2022/11/13 14:29:45;;;;;;;;;;;18.10;82.20;;;;;;5080152;28;19917;-12
2022/11/13 14:32:21;;;;;;;;;;;18.10;82.40;;;;;;5096133;28;20003;-11
2022/11/13 14:34:51;;;;;;;;;;;18.10;82.50;;;;;;5095367;28;20007;-9
2022/11/13 14:37:16;;;;;;;;;;;18.10;82.60;;;;;;5062514;28;19912;-11
2022/11/13 14:39:43;;;;;;;;;;;18.00;82.70;;;;;;5080108;28;19920;-11
2022/11/13 14:42:14;;;;;;;;;;;18.10;82.70;;;;;;5062117;28;19948;-11
2022/11/13 14:44:40;;;;;;;;;;;18.00;82.70;;;;;;5078895;28;19919;-11
2022/11/13 14:47:21;;;;;;;;;;;18.00;82.80;;;;;;5079426;28;19912;-12
2022/11/13 14:49:47;;;;;;;;;;;18.00;83.00;;;;;;5062148;28;19962;-12